Time;durP1;ratioP1;P1;durP2;ratioP2;P2;SDS_P1;SDS_P2;PMS_P1;PMS_P2;Temp;Humidity;BMP_temperature;BMP_pressure;BME280_temperature;BME280_humidity;BME280_pressure;Samples;Min_cycle;Max_cycle;Signal;HPM_P1;HPM_P2
2021/03/16 00:00:09;;;;;;;52.47;24.97;;;1.90;99.90;;;;;;4425594;32;20218;-74
2021/03/16 00:02:36;;;;;;;48.73;23.33;;;1.90;99.90;;;;;;4426352;32;20160;-74
2021/03/16 00:05:04;;;;;;;50.57;23.67;;;1.70;99.90;;;;;;4424935;32;20181;-75
2021/03/16 00:07:30;;;;;;;45.83;22.03;;;1.80;99.90;;;;;;4426178;32;20190;-74
2021/03/16 00:09:57;;;;;;;48.37;21.13;;;1.80;99.90;;;;;;4426181;32;20167;-74
2021/03/16 00:12:24;;;;;;;48.63;20.80;;;1.70;99.90;;;;;;4424720;32;20220;-74
2021/03/16 00:14:50;;;;;;;49.03;20.37;;;1.70;99.90;;;;;;4425363;32;20166;-74
2021/03/16 00:17:17;;;;;;;45.70;20.10;;;1.70;99.90;;;;;;4426083;32;20155;-74
2021/03/16 00:19:45;;;;;;;43.20;20.80;;;1.70;99.90;;;;;;4426492;32;20159;-74
2021/03/16 00:22:12;;;;;;;45.97;21.87;;;1.70;99.90;;;;;;4426293;32;20183;-73
2021/03/16 00:24:39;;;;;;;45.40;21.40;;;1.60;99.90;;;;;;4411805;32;20175;-74
2021/03/16 00:27:05;;;;;;;45.23;21.07;;;1.60;99.90;;;;;;4425909;32;20150;-73
2021/03/16 00:29:32;;;;;;;50.33;22.07;;;1.50;99.90;;;;;;4426045;32;20173;-74
2021/03/16 00:31:58;;;;;;;45.30;20.87;;;1.60;99.90;;;;;;4426320;32;20198;-73
2021/03/16 00:34:25;;;;;;;52.43;22.17;;;1.50;99.90;;;;;;4426174;32;20215;-74
2021/03/16 00:36:51;;;;;;;53.23;24.50;;;1.60;99.90;;;;;;4427588;32;20436;-73
2021/03/16 00:39:18;;;;;;;45.90;23.93;;;1.60;99.90;;;;;;4426342;32;20215;-73
2021/03/16 00:41:44;;;;;;;48.27;24.23;;;1.60;99.90;;;;;;4427753;32;20173;-73
2021/03/16 00:44:11;;;;;;;47.00;22.70;;;1.60;99.90;;;;;;4412666;32;20390;-73
2021/03/16 00:46:37;;;;;;;53.80;22.53;;;1.50;99.90;;;;;;4426140;32;20165;-74
2021/03/16 00:49:04;;;;;;;48.60;22.47;;;1.50;99.90;;;;;;4426243;32;20144;-73
2021/03/16 00:51:31;;;;;;;51.50;22.70;;;1.50;99.90;;;;;;4427637;32;20442;-73
2021/03/16 00:53:58;;;;;;;50.73;22.73;;;1.40;99.90;;;;;;4426290;32;20429;-74
2021/03/16 00:56:24;;;;;;;47.20;22.40;;;1.40;99.90;;;;;;4426299;32;20198;-73
2021/03/16 00:58:51;;;;;;;52.00;22.90;;;1.40;99.90;;;;;;4426070;32;20182;-73
2021/03/16 01:01:17;;;;;;;60.67;25.33;;;1.30;99.90;;;;;;4425276;32;20536;-74
2021/03/16 01:03:44;;;;;;;60.63;26.23;;;1.30;99.90;;;;;;4425743;32;20437;-73
2021/03/16 01:06:12;;;;;;;55.40;26.60;;;1.20;99.90;;;;;;4426967;32;20162;-75
2021/03/16 01:08:38;;;;;;;62.30;28.70;;;1.20;99.90;;;;;;4427503;32;20512;-74
2021/03/16 01:11:05;;;;;;;68.30;29.57;;;1.20;99.90;;;;;;4427631;32;20139;-74
2021/03/16 01:13:31;;;;;;;58.17;28.13;;;1.10;99.90;;;;;;4425865;32;20411;-74
2021/03/16 01:15:59;;;;;;;69.07;29.70;;;1.10;99.90;;;;;;4427377;32;20418;-74
2021/03/16 01:18:26;;;;;;;70.73;30.10;;;1.10;99.90;;;;;;4427308;32;20151;-73
2021/03/16 01:20:53;;;;;;;69.33;32.07;;;1.10;99.90;;;;;;4427393;32;20147;-73
2021/03/16 01:23:20;;;;;;;84.57;34.13;;;1.00;99.90;;;;;;4425616;32;20489;-74
2021/03/16 01:26:05;;;;;;;80.03;33.90;;;1.00;99.90;;;;;;4427167;32;20143;-73
2021/03/16 01:28:33;;;;;;;83.13;34.80;;;1.00;99.90;;;;;;4425493;32;20166;-73
2021/03/16 01:31:00;;;;;;;81.50;32.90;;;0.90;99.90;;;;;;4425534;32;20170;-73
2021/03/16 01:33:28;;;;;;;74.30;32.77;;;0.80;99.90;;;;;;4424877;32;20400;-72
2021/03/16 01:35:54;;;;;;;76.03;32.30;;;0.80;99.90;;;;;;4425666;32;20143;-73
2021/03/16 01:38:20;;;;;;;78.33;32.23;;;0.80;99.90;;;;;;4426927;32;20161;-73
2021/03/16 01:40:47;;;;;;;72.17;31.77;;;0.90;99.90;;;;;;4426361;32;20163;-73
2021/03/16 01:43:15;;;;;;;75.13;32.10;;;0.90;99.90;;;;;;4426850;32;20240;-73
2021/03/16 01:45:43;;;;;;;70.37;33.80;;;0.90;99.90;;;;;;4425309;32;20546;-72
2021/03/16 01:48:11;;;;;;;77.03;33.50;;;1.00;99.90;;;;;;4426775;32;20155;-72
2021/03/16 01:50:39;;;;;;;79.70;34.70;;;1.00;99.90;;;;;;4425177;32;20494;-72
2021/03/16 01:53:08;;;;;;;75.90;35.67;;;1.00;99.90;;;;;;4426657;32;20177;-72
2021/03/16 01:55:35;;;;;;;77.93;36.90;;;0.90;99.90;;;;;;4426631;32;20186;-72
2021/03/16 01:58:02;;;;;;;86.63;38.50;;;0.90;99.90;;;;;;4426584;32;20165;-72
2021/03/16 02:00:47;;;;;;;78.93;36.20;;;1.00;99.90;;;;;;4425863;32;20516;-72
2021/03/16 02:03:13;;;;;;;76.07;34.97;;;1.00;99.90;;;;;;4424516;32;20435;-72
2021/03/16 02:05:42;;;;;;;86.13;36.00;;;1.00;99.90;;;;;;4410970;32;20232;-72
2021/03/16 02:08:31;;;;;;;80.40;35.63;;;1.00;99.90;;;;;;4424809;32;20161;-72
2021/03/16 02:11:17;;;;;;;82.80;36.50;;;1.10;99.90;;;;;;4424647;32;20143;-72
2021/03/16 02:14:03;;;;;;;78.60;36.43;;;1.10;99.90;;;;;;4424644;32;20539;-72
2021/03/16 02:16:36;;;;;;;77.83;35.07;;;1.10;99.90;;;;;;4426187;32;20499;-73
2021/03/16 02:19:08;;;;;;;77.57;36.13;;;1.10;99.90;;;;;;4426292;32;20144;-72
2021/03/16 02:21:36;;;;;;;82.07;34.90;;;1.10;99.90;;;;;;4425077;32;20218;-72
2021/03/16 02:24:06;;;;;;;82.30;35.43;;;1.10;99.90;;;;;;4425260;32;20158;-73
2021/03/16 02:27:14;;;;;;;76.77;34.90;;;1.00;99.90;;;;;;4424693;32;20151;-73
2021/03/16 02:29:52;;;;;;;70.93;33.43;;;1.00;99.90;;;;;;4426215;32;20517;-72
2021/03/16 02:32:23;;;;;;;73.00;34.07;;;1.00;99.90;;;;;;4426213;32;20155;-72
2021/03/16 02:34:58;;;;;;;73.60;34.23;;;1.00;99.90;;;;;;4426124;32;20150;-72
2021/03/16 02:37:27;;;;;;;73.63;33.37;;;1.00;99.90;;;;;;4426633;32;20155;-72
2021/03/16 02:39:55;;;;;;;76.33;34.40;;;1.00;99.90;;;;;;4425481;32;20139;-73
2021/03/16 02:42:22;;;;;;;77.13;35.17;;;1.00;99.90;;;;;;4426059;32;20196;-73
2021/03/16 02:44:51;;;;;;;74.97;35.27;;;1.00;99.90;;;;;;4424492;32;20161;-73
2021/03/16 02:47:21;;;;;;;72.20;32.83;;;1.00;99.90;;;;;;4424834;32;20159;-73
2021/03/16 02:49:49;;;;;;;73.43;32.70;;;1.00;99.90;;;;;;4424506;32;20184;-74
2021/03/16 02:52:16;;;;;;;69.43;31.90;;;1.10;99.90;;;;;;4424439;32;20226;-74
2021/03/16 02:54:44;;;;;;;72.70;32.80;;;1.20;99.90;;;;;;4425839;32;20473;-72
2021/03/16 02:57:12;;;;;;;74.00;34.13;;;1.10;99.90;;;;;;4424441;32;20151;-73
2021/03/16 02:59:41;;;;;;;75.47;33.33;;;1.20;99.90;;;;;;4423804;32;20151;-73
2021/03/16 03:02:12;;;;;;;70.87;31.97;;;1.20;99.90;;;;;;4424541;32;20159;-73
2021/03/16 03:04:41;;;;;;;75.33;34.00;;;1.10;99.90;;;;;;4424800;32;20169;-72
2021/03/16 03:07:09;;;;;;;73.97;33.00;;;1.10;99.90;;;;;;4425686;32;20162;-72
2021/03/16 03:09:36;;;;;;;71.93;34.17;;;1.10;99.90;;;;;;4423747;32;20170;-73
2021/03/16 03:12:08;;;;;;;72.47;32.60;;;1.10;99.90;;;;;;4424241;32;20162;-73
2021/03/16 03:14:37;;;;;;;71.47;34.00;;;1.20;99.90;;;;;;4424217;32;20150;-73
2021/03/16 03:17:08;;;;;;;72.13;32.70;;;1.20;99.90;;;;;;4424559;32;20192;-73
2021/03/16 03:19:35;;;;;;;69.37;32.30;;;1.20;99.90;;;;;;4424209;32;20407;-73
2021/03/16 03:22:25;;;;;;;73.47;32.00;;;1.20;99.90;;;;;;4424227;32;20189;-73
2021/03/16 03:25:04;;;;;;;73.47;31.87;;;1.20;99.90;;;;;;4424168;32;20522;-73
2021/03/16 03:27:36;;;;;;;68.73;31.37;;;1.30;99.90;;;;;;4425534;32;20161;-73
2021/03/16 03:30:04;;;;;;;75.37;32.70;;;1.30;99.90;;;;;;4425924;32;20193;-73
2021/03/16 03:32:33;;;;;;;73.37;32.50;;;1.30;99.90;;;;;;4425629;32;20143;-72
2021/03/16 03:35:01;;;;;;;74.40;32.27;;;1.30;99.90;;;;;;4423894;32;20600;-72
2021/03/16 03:37:29;;;;;;;73.30;32.20;;;1.30;99.90;;;;;;4425476;32;20168;-72
2021/03/16 03:39:58;;;;;;;78.23;32.93;;;1.20;99.90;;;;;;4423818;32;20186;-72
2021/03/16 03:42:26;;;;;;;77.03;33.03;;;1.20;99.90;;;;;;4423816;32;20169;-72
2021/03/16 03:44:56;;;;;;;67.13;31.50;;;1.20;99.90;;;;;;4423923;32;20150;-73
2021/03/16 03:47:24;;;;;;;66.87;31.47;;;1.20;99.90;;;;;;4426005;32;20339;-73
2021/03/16 03:49:51;;;;;;;69.10;31.70;;;1.10;99.90;;;;;;4425382;32;20209;-73
2021/03/16 03:52:19;;;;;;;70.33;32.33;;;1.10;99.90;;;;;;4423334;32;20181;-72
2021/03/16 03:54:46;;;;;;;65.27;31.10;;;1.10;99.90;;;;;;4423863;32;20200;-72
2021/03/16 03:57:14;;;;;;;71.63;31.80;;;1.10;99.90;;;;;;4423988;32;20477;-73
2021/03/16 03:59:45;;;;;;;75.10;33.17;;;1.00;99.90;;;;;;4424013;32;20195;-72
2021/03/16 04:02:12;;;;;;;81.57;34.50;;;0.90;99.90;;;;;;4409837;32;20192;-73
2021/03/16 04:04:40;;;;;;;73.07;33.20;;;0.90;99.90;;;;;;4425824;32;20390;-73
2021/03/16 04:07:07;;;;;;;78.03;34.43;;;0.90;99.90;;;;;;4428259;32;20214;-73
2021/03/16 04:09:34;;;;;;;73.97;34.30;;;0.90;99.90;;;;;;4426219;32;20159;-73
2021/03/16 04:12:02;;;;;;;75.23;34.53;;;0.90;99.90;;;;;;4427698;32;20151;-73
2021/03/16 04:14:29;;;;;;;71.83;33.37;;;0.90;99.90;;;;;;4426535;32;20228;-72
2021/03/16 04:16:57;;;;;;;73.97;32.80;;;0.80;99.90;;;;;;4426605;32;20200;-73
2021/03/16 04:19:24;;;;;;;76.10;34.20;;;0.80;99.90;;;;;;4428020;32;20466;-72
2021/03/16 04:21:51;;;;;;;79.60;33.23;;;0.70;99.90;;;;;;4426547;32;20178;-72
2021/03/16 04:24:18;;;;;;;78.87;35.30;;;0.70;99.90;;;;;;4426251;32;20457;-72
2021/03/16 04:26:44;;;;;;;78.33;34.67;;;0.70;99.90;;;;;;4426458;32;20228;-72
2021/03/16 04:29:11;;;;;;;74.47;34.37;;;0.70;99.90;;;;;;4426515;32;20397;-72
2021/03/16 04:31:37;;;;;;;79.33;35.07;;;0.70;99.90;;;;;;4426396;32;20147;-73
2021/03/16 04:34:04;;;;;;;77.27;34.00;;;0.70;99.90;;;;;;4427792;32;20147;-73
2021/03/16 04:36:31;;;;;;;76.03;33.33;;;0.70;99.90;;;;;;4426414;32;20174;-72
2021/03/16 04:38:57;;;;;;;79.97;35.43;;;0.60;99.90;;;;;;4426356;32;20180;-72
2021/03/16 04:41:23;;;;;;;80.10;35.47;;;0.70;99.90;;;;;;4425822;32;20419;-73
2021/03/16 04:43:50;;;;;;;77.70;35.37;;;0.60;99.90;;;;;;4426645;32;20229;-72
2021/03/16 04:46:17;;;;;;;80.10;35.93;;;0.60;99.90;;;;;;4427828;32;20151;-73
2021/03/16 04:48:43;;;;;;;81.03;36.47;;;0.60;99.90;;;;;;4426537;32;20202;-73
2021/03/16 04:51:10;;;;;;;82.50;35.23;;;0.60;99.90;;;;;;4427672;32;20194;-72
2021/03/16 04:53:36;;;;;;;87.60;36.03;;;0.60;99.90;;;;;;4427638;32;20175;-73
2021/03/16 04:56:03;;;;;;;90.60;37.23;;;0.60;99.90;;;;;;4426192;32;20430;-73
2021/03/16 04:58:37;;;;;;;81.10;35.40;;;0.50;99.90;;;;;;4427160;32;20446;-73
2021/03/16 05:01:03;;;;;;;89.43;38.60;;;0.50;99.90;;;;;;4427043;32;20182;-74
2021/03/16 05:03:30;;;;;;;83.67;36.30;;;0.50;99.90;;;;;;4426116;32;20221;-74
2021/03/16 05:05:57;;;;;;;83.33;36.40;;;0.50;99.90;;;;;;4427472;32;20147;-73
2021/03/16 05:08:25;;;;;;;77.97;34.77;;;0.50;99.90;;;;;;4426011;32;20174;-74
2021/03/16 05:10:51;;;;;;;77.73;35.77;;;0.40;99.90;;;;;;4427457;32;20188;-73
2021/03/16 05:13:20;;;;;;;87.37;37.27;;;0.40;99.90;;;;;;4427330;32;20162;-73
2021/03/16 05:15:47;;;;;;;82.03;36.50;;;0.40;99.90;;;;;;4425059;32;20380;-73
2021/03/16 05:18:14;;;;;;;87.23;37.47;;;0.50;99.90;;;;;;4426666;32;20151;-74
2021/03/16 05:20:42;;;;;;;89.80;38.50;;;0.50;99.90;;;;;;4426818;32;20138;-73
2021/03/16 05:23:09;;;;;;;92.97;39.30;;;0.40;99.90;;;;;;4425556;32;20139;-74
2021/03/16 05:25:36;;;;;;;92.50;40.17;;;0.40;99.90;;;;;;4427464;32;20151;-74
2021/03/16 05:28:03;;;;;;;93.10;41.73;;;0.50;99.90;;;;;;4425215;32;20493;-74
2021/03/16 05:30:29;;;;;;;92.87;40.23;;;0.50;99.90;;;;;;4425615;32;20163;-74
2021/03/16 05:33:00;;;;;;;95.07;41.00;;;0.60;99.90;;;;;;4427011;32;20204;-74
2021/03/16 05:35:27;;;;;;;97.57;40.47;;;0.70;99.90;;;;;;4427084;32;20222;-73
2021/03/16 05:37:55;;;;;;;96.10;40.70;;;0.80;99.90;;;;;;4425616;32;20169;-74
2021/03/16 05:40:22;;;;;;;95.73;40.20;;;0.90;99.90;;;;;;4425501;32;20175;-74
2021/03/16 05:42:50;;;;;;;94.10;40.97;;;1.00;99.90;;;;;;4426885;32;20143;-71
2021/03/16 05:45:17;;;;;;;99.77;41.97;;;1.00;99.90;;;;;;4425440;32;20150;-74
2021/03/16 05:47:46;;;;;;;92.60;40.43;;;1.10;99.90;;;;;;4424829;32;20358;-73
2021/03/16 05:50:15;;;;;;;93.77;40.57;;;1.20;99.90;;;;;;4425216;32;20420;-74
2021/03/16 05:52:41;;;;;;;96.60;41.13;;;1.20;99.90;;;;;;4427016;32;20176;-74
2021/03/16 05:55:09;;;;;;;91.30;40.00;;;1.30;99.90;;;;;;4426708;32;20163;-74
2021/03/16 05:57:36;;;;;;;92.17;40.37;;;1.40;99.90;;;;;;4425677;32;20177;-74
2021/03/16 06:00:09;;;;;;;94.47;39.90;;;1.50;99.90;;;;;;4425166;32;20143;-73
2021/03/16 06:02:37;;;;;;;93.17;40.47;;;1.60;99.90;;;;;;4425123;32;20158;-73
2021/03/16 06:05:05;;;;;;;92.40;41.03;;;1.70;99.90;;;;;;4425057;32;20151;-73
2021/03/16 06:07:32;;;;;;;87.63;39.80;;;1.80;99.90;;;;;;4426500;32;20440;-71
2021/03/16 06:09:58;;;;;;;89.77;38.97;;;1.80;99.90;;;;;;4426408;32;20143;-73
2021/03/16 06:12:34;;;;;;;100.20;40.60;;;1.90;99.90;;;;;;4426767;32;20465;-73
2021/03/16 06:15:14;;;;;;;83.00;37.33;;;2.00;99.90;;;;;;4424894;32;20173;-73
2021/03/16 06:17:46;;;;;;;85.33;37.87;;;2.10;99.90;;;;;;4426447;32;20165;-73
2021/03/16 06:20:26;;;;;;;93.83;38.77;;;2.10;99.90;;;;;;4426100;32;20139;-72
2021/03/16 06:23:09;;;;;;;81.17;36.80;;;2.10;99.90;;;;;;4426351;32;20553;-73
2021/03/16 06:25:44;;;;;;;83.00;38.23;;;2.20;99.90;;;;;;4426571;32;20160;-73
2021/03/16 06:28:13;;;;;;;85.07;38.40;;;2.20;99.90;;;;;;4425897;32;20377;-73
2021/03/16 06:30:40;;;;;;;88.50;38.37;;;2.20;99.90;;;;;;4424490;32;20151;-73
2021/03/16 06:33:21;;;;;;;91.17;38.47;;;2.20;99.90;;;;;;4426044;32;20198;-72
2021/03/16 06:35:56;;;;;;;89.97;39.00;;;2.30;99.90;;;;;;4425017;32;20196;-73
2021/03/16 06:38:23;;;;;;;90.70;39.13;;;2.30;99.90;;;;;;4424196;32;20488;-72
2021/03/16 06:40:50;;;;;;;91.63;38.27;;;2.40;99.90;;;;;;4424154;32;20190;-73
2021/03/16 06:43:17;;;;;;;90.07;39.83;;;2.40;99.90;;;;;;4424536;32;20221;-72
2021/03/16 06:45:51;;;;;;;89.00;39.77;;;2.50;99.90;;;;;;4424322;32;20532;-72
2021/03/16 06:48:19;;;;;;;90.93;39.87;;;2.60;99.90;;;;;;4426008;32;20146;-73
2021/03/16 06:50:47;;;;;;;86.97;38.50;;;2.70;99.90;;;;;;4425938;32;20143;-73
2021/03/16 06:53:20;;;;;;;85.67;38.43;;;2.80;99.90;;;;;;4425825;32;20170;-73
2021/03/16 06:55:56;;;;;;;91.23;39.40;;;2.90;99.90;;;;;;4425884;32;20147;-73
2021/03/16 06:58:26;;;;;;;92.03;40.03;;;2.90;99.90;;;;;;4424826;32;20393;-74
2021/03/16 07:01:16;;;;;;;86.83;39.60;;;3.00;99.90;;;;;;4424304;32;20426;-73
2021/03/16 07:03:50;;;;;;;87.20;39.37;;;3.10;99.90;;;;;;4425708;32;20525;-72
2021/03/16 07:06:18;;;;;;;83.37;38.70;;;3.30;99.90;;;;;;4411866;32;20159;-72
2021/03/16 07:08:47;;;;;;;94.97;39.57;;;3.40;99.90;;;;;;4424099;32;20186;-72
2021/03/16 07:11:21;;;;;;;85.93;38.63;;;3.50;99.90;;;;;;4408851;32;20186;-73
2021/03/16 07:13:48;;;;;;;90.93;39.50;;;3.70;99.90;;;;;;4423819;32;20166;-74
2021/03/16 07:16:15;;;;;;;84.27;37.93;;;3.80;99.90;;;;;;4424038;32;20163;-73
2021/03/16 07:18:46;;;;;;;78.67;36.67;;;4.10;99.90;;;;;;4424223;32;20143;-74
2021/03/16 07:21:28;;;;;;;79.07;36.50;;;4.20;99.90;;;;;;4423564;32;20165;-73
2021/03/16 07:23:57;;;;;;;73.00;34.47;;;4.50;99.90;;;;;;4424222;32;20226;-73
2021/03/16 07:26:28;;;;;;;81.20;37.33;;;4.70;99.90;;;;;;4425275;32;20202;-72
2021/03/16 07:28:56;;;;;;;77.87;35.67;;;4.90;99.90;;;;;;4424660;32;20191;-73
2021/03/16 07:31:23;;;;;;;82.50;36.50;;;5.20;99.90;;;;;;4423416;32;20148;-73
2021/03/16 07:33:52;;;;;;;74.80;34.97;;;5.30;99.90;;;;;;4410267;32;20253;-72
2021/03/16 07:36:20;;;;;;;70.90;33.60;;;5.50;99.90;;;;;;4423951;32;20144;-72
2021/03/16 07:38:53;;;;;;;72.10;33.77;;;5.50;99.90;;;;;;4425531;32;20159;-73
2021/03/16 07:41:20;;;;;;;67.83;32.07;;;5.50;99.90;;;;;;4427333;32;20163;-73
2021/03/16 07:43:49;;;;;;;71.23;32.67;;;5.50;99.90;;;;;;4428564;32;20167;-73
2021/03/16 07:46:18;;;;;;;70.97;32.20;;;5.30;99.90;;;;;;4428702;32;20165;-73
2021/03/16 07:48:55;;;;;;;67.73;30.97;;;5.40;99.90;;;;;;4413079;32;20451;-73
2021/03/16 07:51:34;;;;;;;68.40;31.70;;;5.50;99.90;;;;;;4428880;32;20457;-72
2021/03/16 07:54:05;;;;;;;64.83;29.83;;;5.50;99.90;;;;;;4414561;32;20458;-72
2021/03/16 07:56:34;;;;;;;67.30;29.80;;;5.50;99.90;;;;;;4428249;32;20150;-72
2021/03/16 07:59:04;;;;;;;61.67;29.67;;;5.70;99.90;;;;;;4413349;32;20140;-72
2021/03/16 08:01:31;;;;;;;66.57;31.20;;;6.00;99.90;;;;;;4426872;32;20220;-72
2021/03/16 08:04:10;;;;;;;68.77;29.63;;;6.10;99.90;;;;;;4426466;32;20254;-73
2021/03/16 08:06:37;;;;;;;58.80;29.17;;;6.30;99.90;;;;;;4426719;32;20467;-74
2021/03/16 08:09:04;;;;;;;62.07;28.90;;;6.50;99.90;;;;;;4428263;32;20140;-73
2021/03/16 08:11:39;;;;;;;63.33;29.40;;;6.60;99.90;;;;;;4426394;32;20161;-74
2021/03/16 08:14:07;;;;;;;61.53;28.40;;;6.60;99.90;;;;;;4428255;32;20156;-72
2021/03/16 08:16:37;;;;;;;56.97;27.83;;;6.60;99.90;;;;;;4426604;32;20173;-72
2021/03/16 08:19:11;;;;;;;60.03;27.90;;;6.50;99.90;;;;;;4428138;32;20453;-74
2021/03/16 08:21:39;;;;;;;58.43;27.37;;;6.70;99.90;;;;;;4428193;32;20210;-73
2021/03/16 08:24:08;;;;;;;55.40;27.23;;;7.10;99.90;;;;;;4427032;32;20238;-72
2021/03/16 08:26:45;;;;;;;55.43;26.37;;;8.00;99.90;;;;;;4428047;32;20143;-72
2021/03/16 08:29:13;;;;;;;52.83;26.43;;;8.80;99.80;;;;;;4426684;32;20194;-72
2021/03/16 08:31:41;;;;;;;58.07;27.10;;;9.30;96.30;;;;;;4426515;32;20648;-73
2021/03/16 08:34:09;;;;;;;55.80;25.47;;;9.80;94.20;;;;;;4426217;32;20212;-73
2021/03/16 08:36:43;;;;;;;56.37;26.60;;;10.10;92.10;;;;;;4427529;32;20146;-72
2021/03/16 08:39:21;;;;;;;45.63;23.83;;;10.40;90.20;;;;;;4427689;32;20180;-73
2021/03/16 08:41:59;;;;;;;45.53;23.67;;;10.50;89.10;;;;;;4425360;32;20377;-74
2021/03/16 08:44:28;;;;;;;45.97;23.77;;;10.70;86.10;;;;;;4425875;32;20161;-71
2021/03/16 08:46:58;;;;;;;43.90;22.00;;;11.10;84.60;;;;;;4425867;32;20169;-71
2021/03/16 08:49:26;;;;;;;39.50;20.37;;;11.20;82.50;;;;;;4413748;32;20407;-74
2021/03/16 08:51:52;;;;;;;34.47;19.57;;;11.40;80.60;;;;;;4426027;32;20173;-72
2021/03/16 08:54:29;;;;;;;33.13;18.17;;;11.00;81.10;;;;;;4426126;32;20169;-71
2021/03/16 08:56:55;;;;;;;37.60;19.27;;;11.00;80.90;;;;;;4425580;32;20146;-75
2021/03/16 08:59:22;;;;;;;40.33;20.30;;;11.20;79.50;;;;;;4427372;32;20154;-72
2021/03/16 09:01:52;;;;;;;38.57;20.23;;;11.40;79.70;;;;;;4425904;32;20186;-73
2021/03/16 09:04:19;;;;;;;41.20;19.67;;;11.60;77.50;;;;;;4425725;32;20164;-73
2021/03/16 09:06:50;;;;;;;36.73;19.27;;;11.80;76.50;;;;;;4425560;32;20200;-72
2021/03/16 09:09:24;;;;;;;30.97;17.37;;;11.90;76.20;;;;;;4427271;32;20155;-72
2021/03/16 09:11:52;;;;;;;35.50;18.87;;;11.80;73.60;;;;;;4426790;32;20401;-71
2021/03/16 09:14:20;;;;;;;34.00;18.40;;;11.80;73.20;;;;;;4425497;32;20154;-72
2021/03/16 09:16:55;;;;;;;44.47;20.93;;;12.20;73.70;;;;;;4425286;32;20206;-72
2021/03/16 09:19:32;;;;;;;39.17;19.60;;;12.00;73.40;;;;;;4425000;32;20438;-72
2021/03/16 09:22:01;;;;;;;37.63;20.23;;;12.20;73.50;;;;;;4425596;32;20146;-74
2021/03/16 09:24:31;;;;;;;39.40;20.30;;;12.50;71.70;;;;;;4425860;32;20177;-73
2021/03/16 09:27:00;;;;;;;41.37;20.57;;;12.80;70.00;;;;;;4426916;32;20171;-72
2021/03/16 09:29:32;;;;;;;35.87;20.20;;;13.00;70.20;;;;;;4425217;32;20198;-72
2021/03/16 09:32:13;;;;;;;38.00;20.03;;;13.30;67.80;;;;;;4425517;32;20181;-70
2021/03/16 09:34:44;;;;;;;39.80;21.67;;;13.60;67.00;;;;;;4426152;32;20239;-69
2021/03/16 09:37:13;;;;;;;40.97;21.10;;;14.00;66.10;;;;;;4424846;32;20473;-69
2021/03/16 09:39:54;;;;;;;37.03;19.73;;;14.40;65.10;;;;;;4426069;32;20483;-72
2021/03/16 09:42:36;;;;;;;30.70;17.80;;;14.50;62.40;;;;;;4426726;32;20173;-71
2021/03/16 09:45:17;;;;;;;33.67;18.27;;;14.60;61.50;;;;;;4425599;32;20150;-69
2021/03/16 09:47:44;;;;;;;30.27;17.40;;;14.40;62.30;;;;;;4426743;32;20162;-68
2021/03/16 09:50:13;;;;;;;27.43;15.70;;;14.70;60.90;;;;;;4425213;32;20182;-70
2021/03/16 09:52:40;;;;;;;28.67;16.03;;;15.20;59.20;;;;;;4424784;32;20147;-69
2021/03/16 09:55:07;;;;;;;24.47;14.33;;;15.30;57.60;;;;;;4424711;32;20171;-70
2021/03/16 09:57:36;;;;;;;24.90;13.27;;;15.30;57.00;;;;;;4424897;32;20198;-69
2021/03/16 10:00:05;;;;;;;23.33;13.00;;;15.60;56.10;;;;;;4424361;32;20146;-72
2021/03/16 10:02:42;;;;;;;22.37;12.70;;;15.50;55.10;;;;;;4424693;32;20197;-69
2021/03/16 10:05:18;;;;;;;19.07;11.20;;;15.70;54.60;;;;;;4424509;32;20135;-73
2021/03/16 10:07:53;;;;;;;21.47;12.17;;;15.80;53.80;;;;;;4425061;32;20142;-73
2021/03/16 10:10:21;;;;;;;16.63;10.03;;;16.00;53.20;;;;;;4425194;32;20163;-73
2021/03/16 10:12:55;;;;;;;18.63;11.00;;;16.30;51.40;;;;;;4426021;32;20174;-72
2021/03/16 10:15:26;;;;;;;16.77;10.00;;;16.50;50.70;;;;;;4426169;32;20151;-73
2021/03/16 10:17:55;;;;;;;17.10;10.83;;;16.80;49.50;;;;;;4425720;32;20442;-73
2021/03/16 10:20:24;;;;;;;20.87;11.97;;;16.90;49.20;;;;;;4426084;32;20147;-73
2021/03/16 10:22:53;;;;;;;20.53;11.90;;;17.30;49.20;;;;;;4425167;32;20188;-72
2021/03/16 10:25:24;;;;;;;22.13;12.00;;;17.70;49.70;;;;;;4424289;32;20265;-73
2021/03/16 10:27:55;;;;;;;21.63;11.17;;;18.00;48.30;;;;;;4425988;32;20186;-73
2021/03/16 10:30:39;;;;;;;16.90;10.33;;;18.20;46.30;;;;;;4425092;32;20158;-73
2021/03/16 10:33:08;;;;;;;21.37;11.10;;;18.40;45.90;;;;;;4426559;32;20155;-73
2021/03/16 10:35:37;;;;;;;20.30;11.63;;;18.80;44.80;;;;;;4424592;32;20177;-72
2021/03/16 10:38:04;;;;;;;23.33;11.67;;;18.20;45.50;;;;;;4426329;32;20473;-71
2021/03/16 10:40:31;;;;;;;18.40;10.80;;;18.70;45.90;;;;;;4424834;32;20229;-72
2021/03/16 10:42:58;;;;;;;18.17;10.80;;;19.20;45.00;;;;;;4426061;32;20139;-72
2021/03/16 10:45:26;;;;;;;18.60;11.03;;;19.70;43.80;;;;;;4426021;32;20157;-72
2021/03/16 10:47:53;;;;;;;21.53;11.90;;;20.00;42.60;;;;;;4424722;32;20144;-72
2021/03/16 10:50:21;;;;;;;19.33;11.57;;;20.30;41.70;;;;;;4424887;32;20174;-72
2021/03/16 10:52:48;;;;;;;21.47;12.33;;;20.10;41.80;;;;;;4424477;32;20143;-72
2021/03/16 10:55:14;;;;;;;22.87;13.30;;;19.20;42.60;;;;;;4425500;32;20213;-72
2021/03/16 10:57:41;;;;;;;20.53;12.37;;;18.30;45.10;;;;;;4424850;32;20166;-72
2021/03/16 11:00:09;;;;;;;21.93;12.60;;;17.60;45.20;;;;;;4425916;32;20192;-72
2021/03/16 11:02:36;;;;;;;19.97;11.83;;;16.90;47.00;;;;;;4423760;32;20552;-72
2021/03/16 11:05:04;;;;;;;22.73;12.70;;;16.10;48.70;;;;;;4425747;32;20177;-72
2021/03/16 11:07:30;;;;;;;21.10;12.60;;;15.90;50.20;;;;;;4424211;32;20174;-72
2021/03/16 11:09:56;;;;;;;19.83;11.90;;;16.20;49.50;;;;;;4424849;32;20169;-72
2021/03/16 11:12:23;;;;;;;22.30;12.07;;;16.40;50.30;;;;;;4425589;32;20165;-72
2021/03/16 11:14:49;;;;;;;19.97;12.40;;;17.20;48.00;;;;;;4423739;32;20154;-72
2021/03/16 11:17:16;;;;;;;20.00;11.40;;;16.40;47.60;;;;;;4425691;32;20154;-72
2021/03/16 11:19:43;;;;;;;17.53;10.00;;;16.70;48.40;;;;;;4423857;32;20143;-72
2021/03/16 11:22:10;;;;;;;14.47;9.13;;;17.60;47.00;;;;;;4424352;32;20143;-72
2021/03/16 11:24:36;;;;;;;16.43;9.70;;;18.60;43.60;;;;;;4425474;32;20182;-72
2021/03/16 11:27:09;;;;;;;18.97;10.10;;;19.20;42.80;;;;;;4425687;32;20429;-73
2021/03/16 11:29:36;;;;;;;17.93;10.87;;;19.80;41.70;;;;;;4425766;32;20208;-72
2021/03/16 11:32:02;;;;;;;17.67;11.20;;;20.10;40.30;;;;;;4425435;32;20147;-72
2021/03/16 11:34:30;;;;;;;18.37;11.23;;;19.80;40.10;;;;;;4425481;32;20170;-72
2021/03/16 11:36:57;;;;;;;20.50;12.13;;;19.30;41.70;;;;;;4424352;32;20188;-72
2021/03/16 11:39:24;;;;;;;20.37;12.30;;;18.80;43.30;;;;;;4425314;32;20139;-72
2021/03/16 11:41:51;;;;;;;22.03;12.33;;;17.80;44.60;;;;;;4425249;32;20197;-72
2021/03/16 11:44:18;;;;;;;20.17;12.00;;;17.20;46.10;;;;;;4423923;32;20143;-72
2021/03/16 11:46:44;;;;;;;21.13;12.00;;;16.40;47.70;;;;;;4423931;32;20181;-72
2021/03/16 11:49:11;;;;;;;22.47;12.07;;;15.90;49.30;;;;;;4423932;32;20178;-72
2021/03/16 11:51:37;;;;;;;24.20;12.70;;;15.40;50.60;;;;;;4425375;32;20219;-71
2021/03/16 11:54:04;;;;;;;28.57;12.37;;;14.80;52.50;;;;;;4423801;32;20181;-72
2021/03/16 11:56:30;;;;;;;23.23;12.60;;;14.40;54.00;;;;;;4425362;32;20229;-72
2021/03/16 11:58:57;;;;;;;18.87;11.37;;;14.20;54.00;;;;;;4425431;32;20135;-72
2021/03/16 12:01:23;;;;;;;19.90;11.87;;;14.10;54.20;;;;;;4424742;32;20399;-72
2021/03/16 12:03:55;;;;;;;21.23;11.70;;;13.70;54.80;;;;;;4424429;32;20151;-72
2021/03/16 12:06:21;;;;;;;25.67;12.77;;;13.30;57.20;;;;;;4425384;32;20198;-72
2021/03/16 12:08:48;;;;;;;24.17;12.70;;;12.80;58.10;;;;;;4423488;32;20421;-72
2021/03/16 12:11:14;;;;;;;20.27;11.67;;;12.60;59.80;;;;;;4424358;32;20144;-71
2021/03/16 12:13:41;;;;;;;22.00;12.00;;;12.10;61.20;;;;;;4425357;32;20245;-71
2021/03/16 12:16:07;;;;;;;19.73;11.33;;;12.00;60.90;;;;;;4424881;32;20193;-71
2021/03/16 12:18:33;;;;;;;22.60;11.00;;;11.80;61.90;;;;;;4424126;32;20415;-71
2021/03/16 12:21:00;;;;;;;22.83;10.80;;;11.60;61.60;;;;;;4424170;32;20155;-72
2021/03/16 12:23:26;;;;;;;17.03;9.30;;;11.50;62.00;;;;;;4424789;32;20229;-71
2021/03/16 12:25:53;;;;;;;14.37;8.90;;;11.60;60.70;;;;;;4426961;32;20165;-71
2021/03/16 12:28:21;;;;;;;16.60;8.63;;;11.70;60.00;;;;;;4428142;32;20143;-72
2021/03/16 12:30:48;;;;;;;17.27;7.93;;;11.70;59.70;;;;;;4426307;32;20171;-72
2021/03/16 12:33:17;;;;;;;13.00;7.53;;;11.70;59.30;;;;;;4427198;32;20165;-71
2021/03/16 12:35:45;;;;;;;16.43;8.30;;;11.80;58.90;;;;;;4427954;32;20154;-71
2021/03/16 12:38:11;;;;;;;13.37;7.50;;;12.00;58.90;;;;;;4427882;32;20413;-72
2021/03/16 12:40:38;;;;;;;12.60;6.90;;;12.10;57.70;;;;;;4426240;32;20538;-71
2021/03/16 12:43:05;;;;;;;14.20;7.37;;;12.30;57.30;;;;;;4427681;32;20173;-72